Time;durP1;ratioP1;P1;durP2;ratioP2;P2;SDS_P1;SDS_P2;PMS_P1;PMS_P2;Temp;Humidity;BMP_temperature;BMP_pressure;BME280_temperature;BME280_humidity;BME280_pressure;Samples;Min_cycle;Max_cycle;Signal;HPM_P1;HPM_P2
2021/06/06 12:07:04;;;;;;;464.60;439.40;;;18.50;99.90;;;;;;5148268;27;20517;-68
2021/06/06 12:09:36;;;;;;;526.38;496.40;;;15.30;99.90;;;;;;5132053;27;20520;-68
2021/06/06 12:12:08;;;;;;;527.35;498.25;;;15.20;99.90;;;;;;5131983;28;20364;-68
2021/06/06 12:14:37;;;;;;;510.63;482.10;;;15.20;99.90;;;;;;5130725;27;20549;-68
2021/06/06 12:17:21;;;;;;;526.63;496.33;;;15.20;99.90;;;;;;5132150;28;20198;-68
2021/06/06 12:19:56;;;;;;;500.52;473.02;;;15.10;99.90;;;;;;5131710;28;20169;-68
2021/06/06 12:22:23;;;;;;;543.78;512.25;;;15.10;99.90;;;;;;5131878;28;20162;-68
2021/06/06 12:25:11;;;;;;;532.35;500.77;;;14.90;99.90;;;;;;5131769;28;20170;-68
2021/06/06 12:28:05;;;;;;;533.75;503.17;;;14.90;99.90;;;;;;5131654;28;20186;-68
2021/06/06 12:30:46;;;;;;;521.33;492.33;;;14.80;99.90;;;;;;5131732;28;20158;-68
2021/06/06 12:33:11;;;;;;;514.63;484.90;;;14.90;99.90;;;;;;5131435;27;20173;-68
2021/06/06 12:35:44;;;;;;;506.80;478.40;;;14.90;99.90;;;;;;5131509;27;20174;-68
2021/06/06 12:38:12;;;;;;;527.08;497.17;;;15.00;99.90;;;;;;5131652;28;20178;-68
2021/06/06 12:40:39;;;;;;;511.90;483.02;;;15.00;99.90;;;;;;5131324;28;20247;-68
2021/06/06 13:02:55;;;;;;;546.17;515.03;;;14.80;99.90;;;;;;5148157;27;21064;-68
2021/06/06 13:05:41;;;;;;;523.05;493.33;;;14.90;99.90;;;;;;5131957;28;20266;-68
2021/06/06 13:08:25;;;;;;;531.22;500.17;;;14.90;99.90;;;;;;5131934;27;20502;-68
2021/06/06 13:11:05;;;;;;;507.70;478.90;;;15.00;99.90;;;;;;5131866;27;20184;-67
2021/06/06 13:13:38;;;;;;;496.52;468.85;;;15.20;99.90;;;;;;5132035;27;20155;-68
2021/06/06 13:16:15;;;;;;;487.40;460.40;;;15.40;99.90;;;;;;5131790;27;20245;-68
2021/06/06 13:18:41;;;;;;;519.10;489.58;;;15.40;99.90;;;;;;5131739;28;20166;-67
2021/06/06 13:21:16;;;;;;;497.90;469.50;;;15.40;99.90;;;;;;5131571;28;20197;-67
2021/06/06 13:23:44;;;;;;;485.13;457.38;;;15.50;99.90;;;;;;5131728;28;20166;-67
2021/06/06 13:26:21;;;;;;;490.83;464.15;;;15.40;99.90;;;;;;5131545;27;20163;-68
2021/06/06 13:28:59;;;;;;;502.58;474.63;;;15.40;99.90;;;;;;5131761;27;20163;-67
2021/06/06 13:31:38;;;;;;;485.90;459.42;;;15.40;99.90;;;;;;5131713;27;20166;-68
2021/06/06 13:34:08;;;;;;;488.88;461.30;;;15.30;99.90;;;;;;5131487;28;20166;-68
2021/06/06 13:36:35;;;;;;;492.60;466.00;;;15.20;99.90;;;;;;5131473;28;20704;-67
2021/06/06 13:39:14;;;;;;;513.97;485.15;;;15.20;99.90;;;;;;5131405;28;20600;-67
2021/06/06 13:41:40;;;;;;;486.50;459.92;;;15.20;99.90;;;;;;5131291;28;20190;-67
2021/06/06 13:44:06;;;;;;;525.83;495.63;;;15.20;99.90;;;;;;5131329;28;20174;-68
2021/06/06 13:46:33;;;;;;;522.25;493.33;;;15.30;99.90;;;;;;5131049;28;20170;-68
2021/06/06 13:48:59;;;;;;;511.20;483.65;;;15.40;99.90;;;;;;5131138;27;20595;-68
2021/06/06 13:51:24;;;;;;;533.28;503.23;;;15.40;99.90;;;;;;5131171;28;20171;-68
2021/06/06 13:53:50;;;;;;;507.00;479.42;;;15.50;99.90;;;;;;5131373;28;20503;-68
2021/06/06 13:56:16;;;;;;;549.38;518.67;;;15.50;99.90;;;;;;5131039;28;20206;-68
2021/06/06 13:58:41;;;;;;;554.25;522.72;;;15.60;99.90;;;;;;5130830;28;20175;-68
2021/06/06 14:01:07;;;;;;;499.85;473.00;;;15.70;99.90;;;;;;5130834;28;20271;-68
2021/06/06 14:03:38;;;;;;;551.88;520.67;;;15.90;99.90;;;;;;5130971;27;20174;-68
2021/06/06 14:06:06;;;;;;;575.88;543.17;;;15.90;99.90;;;;;;5130880;28;20204;-68
2021/06/06 14:08:32;;;;;;;586.00;552.38;;;16.00;99.90;;;;;;5130709;28;20174;-68
2021/06/06 14:11:01;;;;;;;593.53;559.72;;;16.10;99.90;;;;;;5130624;27;20171;-68
2021/06/06 14:13:30;;;;;;;653.67;614.35;;;16.00;99.90;;;;;;5121735;28;20203;-68
2021/06/06 14:15:59;;;;;;;663.45;622.25;;;15.90;99.90;;;;;;5116688;28;20171;-67
2021/06/06 14:18:25;;;;;;;626.03;589.15;;;15.80;99.90;;;;;;5116969;28;20171;-68
2021/06/06 14:20:52;;;;;;;603.95;568.42;;;15.60;99.90;;;;;;5116686;28;20195;-67
2021/06/06 14:23:19;;;;;;;630.30;592.78;;;15.70;99.90;;;;;;5116931;28;20211;-68
2021/06/06 14:25:45;;;;;;;613.70;576.63;;;15.70;99.90;;;;;;5116912;28;20175;-68
2021/06/06 14:28:13;;;;;;;592.17;558.10;;;15.80;99.90;;;;;;5116834;28;20170;-68
2021/06/06 14:30:40;;;;;;;623.20;586.55;;;16.00;99.90;;;;;;5116427;28;20159;-68
2021/06/06 14:33:09;;;;;;;646.83;607.92;;;16.00;99.90;;;;;;5115446;28;20163;-68
2021/06/06 14:35:35;;;;;;;636.92;598.70;;;16.10;99.90;;;;;;5116674;28;20262;-67
2021/06/06 14:38:02;;;;;;;655.25;615.72;;;16.20;99.90;;;;;;5116526;28;20660;-68
2021/06/06 14:40:31;;;;;;;624.63;587.70;;;16.30;99.90;;;;;;5116278;28;20199;-68
2021/06/06 14:42:58;;;;;;;689.67;647.03;;;16.50;99.90;;;;;;5116526;28;20359;-67
2021/06/06 14:45:30;;;;;;;755.92;708.00;;;16.70;99.90;;;;;;5116509;28;20159;-68
2021/06/06 14:47:56;;;;;;;742.70;696.17;;;16.70;99.90;;;;;;5116402;28;20174;-68
2021/06/06 14:50:22;;;;;;;790.00;739.22;;;16.80;99.90;;;;;;5116196;28;20246;-68
2021/06/06 14:52:48;;;;;;;753.80;706.03;;;16.70;99.90;;;;;;5116414;28;20258;-68
2021/06/06 14:55:16;;;;;;;789.60;739.15;;;16.60;99.90;;;;;;5116233;28;20186;-68
2021/06/06 14:57:42;;;;;;;799.10;748.03;;;16.60;99.90;;;;;;5116027;28;20216;-68
2021/06/06 15:00:12;;;;;;;770.50;721.47;;;16.50;99.90;;;;;;5116144;28;20616;-67
2021/06/06 15:02:37;;;;;;;749.17;702.08;;;16.50;99.90;;;;;;5115701;28;20310;-68
2021/06/06 15:05:07;;;;;;;770.85;721.88;;;16.50;99.90;;;;;;5115856;28;20246;-68
2021/06/06 15:07:32;;;;;;;804.53;753.38;;;16.70;99.90;;;;;;5114734;28;20170;-67
2021/06/06 15:09:58;;;;;;;810.92;758.97;;;16.80;99.90;;;;;;5115943;28;20167;-68
2021/06/06 15:12:23;;;;;;;825.88;772.22;;;16.90;99.90;;;;;;5115844;28;20167;-68
2021/06/06 15:14:49;;;;;;;826.70;773.42;;;17.00;99.90;;;;;;5115712;28;20517;-68
2021/06/06 15:17:14;;;;;;;846.67;791.17;;;17.10;99.90;;;;;;5115882;28;20175;-68
2021/06/06 15:19:40;;;;;;;922.35;858.25;;;17.00;99.90;;;;;;5115486;28;20167;-68
2021/06/06 15:22:05;;;;;;;894.08;834.10;;;17.00;99.90;;;;;;5115610;28;20238;-68
2021/06/06 15:24:31;;;;;;;871.92;814.17;;;16.80;99.90;;;;;;5114701;28;20250;-67
2021/06/06 15:26:57;;;;;;;867.50;810.08;;;16.70;99.90;;;;;;5115538;28;20489;-67
2021/06/06 15:29:22;;;;;;;847.72;792.80;;;16.60;99.90;;;;;;5115492;28;20202;-68
2021/06/06 15:31:48;;;;;;;815.05;763.08;;;16.50;99.90;;;;;;5115505;28;20186;-68
2021/06/06 15:34:16;;;;;;;792.17;741.38;;;16.40;99.90;;;;;;5115627;28;20174;-68
2021/06/06 15:36:42;;;;;;;809.50;757.55;;;16.40;99.90;;;;;;5115453;28;20621;-68
2021/06/06 15:39:14;;;;;;;806.47;754.63;;;16.50;99.90;;;;;;5115399;28;20250;-68
2021/06/06 15:41:42;;;;;;;814.88;762.00;;;16.70;99.90;;;;;;5115138;28;20229;-69
2021/06/06 15:44:09;;;;;;;866.97;809.15;;;16.90;99.90;;;;;;5115030;28;20634;-69
2021/06/06 15:46:36;;;;;;;896.78;836.35;;;17.00;99.90;;;;;;5115247;28;20220;-68
2021/06/06 15:49:03;;;;;;;926.33;862.70;;;17.20;99.90;;;;;;5115212;28;20170;-68
2021/06/06 15:51:42;;;;;;;933.08;868.28;;;17.30;99.90;;;;;;5115062;28;20171;-68
2021/06/06 15:54:09;;;;;;;917.00;853.95;;;17.30;99.90;;;;;;5113906;28;20178;-68
2021/06/06 15:56:35;;;;;;;968.53;899.00;;;17.40;99.90;;;;;;5114902;28;20162;-68
